sensor_id;sensor_type;location;lat;lon;timestamp;pressure;altitude;pressure_sealevel;temperature;humidity
56912;BME280;42800;53.928;27.662;2023-03-14T00:00:09;97733.66;;;3.44;100.00
56912;BME280;42800;53.928;27.662;2023-03-14T00:02:36;97733.03;;;3.50;100.00
56912;BME280;42800;53.928;27.662;2023-03-14T00:05:02;97735.28;;;3.48;100.00
56912;BME280;42800;53.928;27.662;2023-03-14T00:07:32;97726.91;;;3.53;100.00
56912;BME280;42800;53.928;27.662;2023-03-14T00:10:01;97730.25;;;3.66;100.00
56912;BME280;42800;53.928;27.662;2023-03-14T00:12:27;97737.75;;;3.53;100.00
56912;BME280;42800;53.928;27.662;2023-03-14T00:14:53;97729.53;;;3.50;100.00
56912;BME280;42800;53.928;27.662;2023-03-14T00:17:19;97718.41;;;3.55;100.00
56912;BME280;42800;53.928;27.662;2023-03-14T00:19:45;97727.88;;;3.45;100.00
56912;BME280;42800;53.928;27.662;2023-03-14T00:22:11;97729.16;;;3.67;100.00
56912;BME280;42800;53.928;27.662;2023-03-14T00:24:37;97739.56;;;3.49;100.00
56912;BME280;42800;53.928;27.662;2023-03-14T00:27:03;97730.88;;;3.60;100.00
56912;BME280;42800;53.928;27.662;2023-03-14T00:29:29;97726.09;;;3.53;100.00
56912;BME280;42800;53.928;27.662;2023-03-14T00:31:55;97727.00;;;3.57;100.00
56912;BME280;42800;53.928;27.662;2023-03-14T00:34:21;97724.19;;;3.53;100.00
56912;BME280;42800;53.928;27.662;2023-03-14T00:36:47;97732.56;;;3.64;100.00
56912;BME280;42800;53.928;27.662;2023-03-14T00:39:13;97732.56;;;3.64;100.00
56912;BME280;42800;53.928;27.662;2023-03-14T00:41:39;97736.41;;;3.63;100.00
56912;BME280;42800;53.928;27.662;2023-03-14T00:44:05;97727.13;;;3.64;100.00
56912;BME280;42800;53.928;27.662;2023-03-14T00:46:31;97732.63;;;3.68;100.00
56912;BME280;42800;53.928;27.662;2023-03-14T00:48:57;97733.78;;;3.67;100.00
56912;BME280;42800;53.928;27.662;2023-03-14T00:51:23;97731.41;;;3.65;100.00
56912;BME280;42800;53.928;27.662;2023-03-14T00:53:49;97737.13;;;3.60;100.00
56912;BME280;42800;53.928;27.662;2023-03-14T00:56:15;97725.56;;;3.63;100.00
56912;BME280;42800;53.928;27.662;2023-03-14T00:58:41;97726.00;;;3.65;100.00
56912;BME280;42800;53.928;27.662;2023-03-14T01:01:08;97738.69;;;3.61;100.00
56912;BME280;42800;53.928;27.662;2023-03-14T01:03:34;97741.22;;;3.70;100.00
56912;BME280;42800;53.928;27.662;2023-03-14T01:06:08;97756.50;;;3.62;100.00
56912;BME280;42800;53.928;27.662;2023-03-14T01:08:34;97753.63;;;3.71;100.00
56912;BME280;42800;53.928;27.662;2023-03-14T01:11:05;97767.09;;;3.67;100.00
56912;BME280;42800;53.928;27.662;2023-03-14T01:13:32;97769.09;;;3.70;100.00
56912;BME280;42800;53.928;27.662;2023-03-14T01:16:01;97769.50;;;3.72;100.00
56912;BME280;42800;53.928;27.662;2023-03-14T01:18:27;97786.97;;;3.91;100.00
56912;BME280;42800;53.928;27.662;2023-03-14T01:20:53;97797.06;;;3.74;100.00
56912;BME280;42800;53.928;27.662;2023-03-14T01:23:19;97779.16;;;3.89;100.00
56912;BME280;42800;53.928;27.662;2023-03-14T01:25:45;97779.16;;;3.70;100.00
56912;BME280;42800;53.928;27.662;2023-03-14T01:28:10;97781.22;;;3.76;100.00
56912;BME280;42800;53.928;27.662;2023-03-14T01:30:37;97785.59;;;3.81;100.00
56912;BME280;42800;53.928;27.662;2023-03-14T01:33:03;97789.00;;;3.78;100.00
56912;BME280;42800;53.928;27.662;2023-03-14T01:38:35;97782.44;;;3.79;100.00
56912;BME280;42800;53.928;27.662;2023-03-14T01:41:02;97778.78;;;3.71;100.00
56912;BME280;42800;53.928;27.662;2023-03-14T01:43:29;97782.81;;;3.77;100.00
56912;BME280;42800;53.928;27.662;2023-03-14T01:46:20;97783.75;;;3.85;100.00
56912;BME280;42800;53.928;27.662;2023-03-14T01:48:52;97795.97;;;3.95;100.00
56912;BME280;42800;53.928;27.662;2023-03-14T01:51:23;97813.00;;;3.95;100.00
56912;BME280;42800;53.928;27.662;2023-03-14T01:53:53;97814.25;;;3.82;100.00
56912;BME280;42800;53.928;27.662;2023-03-14T01:56:20;97827.66;;;3.75;100.00
56912;BME280;42800;53.928;27.662;2023-03-14T01:58:48;97815.59;;;3.72;100.00
56912;BME280;42800;53.928;27.662;2023-03-14T02:01:18;97830.22;;;3.68;100.00
56912;BME280;42800;53.928;27.662;2023-03-14T02:03:49;97827.84;;;3.66;100.00
56912;BME280;42800;53.928;27.662;2023-03-14T02:06:20;97840.53;;;3.62;100.00
56912;BME280;42800;53.928;27.662;2023-03-14T02:08:47;97842.78;;;3.76;100.00
56912;BME280;42800;53.928;27.662;2023-03-14T02:11:15;97841.28;;;3.78;100.00
56912;BME280;42800;53.928;27.662;2023-03-14T02:13:41;97868.94;;;3.68;100.00
56912;BME280;42800;53.928;27.662;2023-03-14T02:16:08;97877.31;;;3.79;100.00
56912;BME280;42800;53.928;27.662;2023-03-14T02:18:35;97882.31;;;3.77;100.00
56912;BME280;42800;53.928;27.662;2023-03-14T02:21:05;97896.03;;;3.68;100.00
56912;BME280;42800;53.928;27.662;2023-03-14T02:23:44;97897.06;;;3.80;100.00
56912;BME280;42800;53.928;27.662;2023-03-14T02:26:15;97910.22;;;3.77;100.00
56912;BME280;42800;53.928;27.662;2023-03-14T02:28:45;97914.84;;;3.77;100.00
56912;BME280;42800;53.928;27.662;2023-03-14T02:31:12;97930.22;;;3.73;100.00
56912;BME280;42800;53.928;27.662;2023-03-14T02:33:38;97943.06;;;3.76;100.00
56912;BME280;42800;53.928;27.662;2023-03-14T02:36:06;97935.03;;;3.80;100.00
56912;BME280;42800;53.928;27.662;2023-03-14T02:38:35;97936.09;;;3.75;100.00
56912;BME280;42800;53.928;27.662;2023-03-14T02:41:04;97931.44;;;3.75;100.00
56912;BME280;42800;53.928;27.662;2023-03-14T02:43:30;97945.94;;;3.83;100.00
56912;BME280;42800;53.928;27.662;2023-03-14T02:45:56;97954.00;;;3.80;100.00
56912;BME280;42800;53.928;27.662;2023-03-14T02:48:26;97951.91;;;3.73;100.00
56912;BME280;42800;53.928;27.662;2023-03-14T02:50:55;97963.03;;;3.84;100.00
56912;BME280;42800;53.928;27.662;2023-03-14T02:53:24;97977.81;;;3.70;100.00
56912;BME280;42800;53.928;27.662;2023-03-14T02:55:51;97963.78;;;3.68;100.00
56912;BME280;42800;53.928;27.662;2023-03-14T02:58:18;97958.56;;;3.75;100.00
56912;BME280;42800;53.928;27.662;2023-03-14T03:00:45;97949.56;;;3.71;100.00
56912;BME280;42800;53.928;27.662;2023-03-14T03:03:12;97938.34;;;3.57;100.00
56912;BME280;42800;53.928;27.662;2023-03-14T03:05:38;97924.47;;;3.74;100.00
56912;BME280;42800;53.928;27.662;2023-03-14T03:08:04;97912.75;;;3.70;100.00
56912;BME280;42800;53.928;27.662;2023-03-14T03:10:30;97909.25;;;3.70;100.00
56912;BME280;42800;53.928;27.662;2023-03-14T03:12:56;97918.25;;;3.74;100.00
56912;BME280;42800;53.928;27.662;2023-03-14T03:15:22;97922.63;;;3.78;100.00
56912;BME280;42800;53.928;27.662;2023-03-14T03:17:48;97927.78;;;3.84;100.00
56912;BME280;42800;53.928;27.662;2023-03-14T03:20:15;97928.31;;;3.73;100.00
56912;BME280;42800;53.928;27.662;2023-03-14T03:22:41;97931.97;;;3.81;100.00
56912;BME280;42800;53.928;27.662;2023-03-14T03:25:08;97930.31;;;3.76;100.00
56912;BME280;42800;53.928;27.662;2023-03-14T03:27:36;97934.00;;;3.84;100.00
56912;BME280;42800;53.928;27.662;2023-03-14T03:30:03;97951.03;;;3.69;100.00
56912;BME280;42800;53.928;27.662;2023-03-14T03:32:30;97941.97;;;3.77;100.00
56912;BME280;42800;53.928;27.662;2023-03-14T03:34:56;97956.53;;;3.72;100.00
56912;BME280;42800;53.928;27.662;2023-03-14T03:37:22;97963.97;;;3.75;100.00
56912;BME280;42800;53.928;27.662;2023-03-14T03:39:49;97976.84;;;3.78;100.00
56912;BME280;42800;53.928;27.662;2023-03-14T03:42:15;97986.44;;;3.76;100.00
56912;BME280;42800;53.928;27.662;2023-03-14T03:44:41;97999.38;;;3.83;100.00
56912;BME280;42800;53.928;27.662;2023-03-14T03:47:07;98007.88;;;3.81;100.00
56912;BME280;42800;53.928;27.662;2023-03-14T03:49:33;98028.94;;;3.72;100.00
56912;BME280;42800;53.928;27.662;2023-03-14T03:51:59;98048.28;;;3.70;100.00
56912;BME280;42800;53.928;27.662;2023-03-14T03:54:26;98056.81;;;3.72;100.00
56912;BME280;42800;53.928;27.662;2023-03-14T03:56:54;98069.63;;;3.88;100.00
56912;BME280;42800;53.928;27.662;2023-03-14T03:59:20;98087.84;;;3.87;100.00
56912;BME280;42800;53.928;27.662;2023-03-14T04:01:46;98094.13;;;3.91;100.00
56912;BME280;42800;53.928;27.662;2023-03-14T04:04:12;98111.59;;;3.78;100.00
56912;BME280;42800;53.928;27.662;2023-03-14T04:06:38;98105.72;;;3.76;100.00
56912;BME280;42800;53.928;27.662;2023-03-14T04:09:04;98118.94;;;3.77;100.00
56912;BME280;42800;53.928;27.662;2023-03-14T04:11:30;98119.81;;;3.82;100.00
56912;BME280;42800;53.928;27.662;2023-03-14T04:13:56;98127.31;;;3.72;100.00
56912;BME280;42800;53.928;27.662;2023-03-14T04:16:24;98123.00;;;3.84;100.00
56912;BME280;42800;53.928;27.662;2023-03-14T04:18:51;98130.84;;;3.89;100.00
56912;BME280;42800;53.928;27.662;2023-03-14T04:21:17;98146.44;;;3.92;100.00
56912;BME280;42800;53.928;27.662;2023-03-14T04:23:43;98156.72;;;3.86;100.00
56912;BME280;42800;53.928;27.662;2023-03-14T04:26:10;98164.78;;;3.83;100.00
56912;BME280;42800;53.928;27.662;2023-03-14T04:28:36;98157.88;;;3.85;100.00
56912;BME280;42800;53.928;27.662;2023-03-14T04:31:07;98164.09;;;3.86;100.00
56912;BME280;42800;53.928;27.662;2023-03-14T04:33:34;98168.03;;;3.88;100.00
56912;BME280;42800;53.928;27.662;2023-03-14T04:36:00;98163.16;;;3.94;100.00
56912;BME280;42800;53.928;27.662;2023-03-14T04:38:25;98175.47;;;3.91;100.00
56912;BME280;42800;53.928;27.662;2023-03-14T04:40:51;98173.09;;;3.90;100.00
56912;BME280;42800;53.928;27.662;2023-03-14T04:43:17;98165.78;;;3.90;100.00
56912;BME280;42800;53.928;27.662;2023-03-14T04:45:44;98153.88;;;3.95;100.00
56912;BME280;42800;53.928;27.662;2023-03-14T04:48:10;98137.44;;;3.88;100.00
56912;BME280;42800;53.928;27.662;2023-03-14T04:50:36;98133.66;;;3.92;100.00
56912;BME280;42800;53.928;27.662;2023-03-14T04:53:02;98130.03;;;4.16;100.00
56912;BME280;42800;53.928;27.662;2023-03-14T04:55:27;98123.53;;;4.49;100.00
56912;BME280;42800;53.928;27.662;2023-03-14T04:57:53;98097.59;;;4.67;100.00
56912;BME280;42800;53.928;27.662;2023-03-14T05:00:19;98047.00;;;4.59;100.00
56912;BME280;42800;53.928;27.662;2023-03-14T05:02:46;98023.44;;;4.63;100.00
56912;BME280;42800;53.928;27.662;2023-03-14T05:05:12;97975.44;;;4.67;100.00
56912;BME280;42800;53.928;27.662;2023-03-14T05:07:38;97938.31;;;4.91;100.00
56912;BME280;42800;53.928;27.662;2023-03-14T05:10:04;97897.06;;;5.05;100.00
56912;BME280;42800;53.928;27.662;2023-03-14T05:12:30;97832.53;;;4.98;100.00
56912;BME280;42800;53.928;27.662;2023-03-14T05:14:56;97810.56;;;5.30;100.00
56912;BME280;42800;53.928;27.662;2023-03-14T05:17:22;97750.38;;;5.28;100.00
56912;BME280;42800;53.928;27.662;2023-03-14T05:19:49;97717.00;;;5.27;100.00
56912;BME280;42800;53.928;27.662;2023-03-14T05:22:15;97656.25;;;5.42;100.00
56912;BME280;42800;53.928;27.662;2023-03-14T05:24:42;97603.19;;;5.22;100.00
56912;BME280;42800;53.928;27.662;2023-03-14T05:27:08;97600.06;;;5.20;100.00
56912;BME280;42800;53.928;27.662;2023-03-14T05:29:34;97589.03;;;5.09;100.00
56912;BME280;42800;53.928;27.662;2023-03-14T05:32:00;97594.72;;;5.01;100.00
56912;BME280;42800;53.928;27.662;2023-03-14T05:34:26;97598.91;;;4.94;100.00
56912;BME280;42800;53.928;27.662;2023-03-14T05:36:52;97626.00;;;4.91;100.00
56912;BME280;42800;53.928;27.662;2023-03-14T05:39:18;97614.72;;;4.89;100.00
56912;BME280;42800;53.928;27.662;2023-03-14T05:41:44;97628.97;;;5.09;100.00
56912;BME280;42800;53.928;27.662;2023-03-14T05:44:10;97579.41;;;5.46;100.00
56912;BME280;42800;53.928;27.662;2023-03-14T05:46:36;97493.63;;;5.85;100.00
56912;BME280;42800;53.928;27.662;2023-03-14T05:49:02;97389.59;;;5.51;100.00
56912;BME280;42800;53.928;27.662;2023-03-14T05:51:28;97355.34;;;5.43;100.00
56912;BME280;42800;53.928;27.662;2023-03-14T05:53:54;97400.72;;;5.35;100.00
56912;BME280;42800;53.928;27.662;2023-03-14T05:56:20;97411.34;;;5.51;100.00
56912;BME280;42800;53.928;27.662;2023-03-14T05:58:46;97398.00;;;5.35;100.00
56912;BME280;42800;53.928;27.662;2023-03-14T06:01:12;97424.59;;;5.56;100.00
56912;BME280;42800;53.928;27.662;2023-03-14T06:03:38;97425.66;;;5.45;100.00
56912;BME280;42800;53.928;27.662;2023-03-14T06:06:04;97434.16;;;5.80;100.00
56912;BME280;42800;53.928;27.662;2023-03-14T06:08:30;97353.81;;;5.42;100.00
56912;BME280;42800;53.928;27.662;2023-03-14T06:10:57;97368.00;;;5.25;100.00
56912;BME280;42800;53.928;27.662;2023-03-14T06:13:23;97393.78;;;5.41;100.00
56912;BME280;42800;53.928;27.662;2023-03-14T06:15:49;97384.34;;;5.28;100.00
56912;BME280;42800;53.928;27.662;2023-03-14T06:18:15;97400.97;;;5.60;100.00
56912;BME280;42800;53.928;27.662;2023-03-14T06:20:41;97384.38;;;5.32;100.00
56912;BME280;42800;53.928;27.662;2023-03-14T06:23:07;97391.75;;;5.31;100.00
56912;BME280;42800;53.928;27.662;2023-03-14T06:25:34;97418.50;;;5.29;100.00
56912;BME280;42800;53.928;27.662;2023-03-14T06:28:01;97430.91;;;5.27;100.00
56912;BME280;42800;53.928;27.662;2023-03-14T06:30:27;97436.00;;;5.32;100.00
56912;BME280;42800;53.928;27.662;2023-03-14T06:32:53;97435.94;;;5.25;100.00
56912;BME280;42800;53.928;27.662;2023-03-14T06:35:20;97447.41;;;5.45;100.00
56912;BME280;42800;53.928;27.662;2023-03-14T06:37:46;97434.44;;;5.31;100.00
56912;BME280;42800;53.928;27.662;2023-03-14T06:40:13;97422.00;;;5.30;100.00
56912;BME280;42800;53.928;27.662;2023-03-14T06:42:42;97428.03;;;5.12;100.00
56912;BME280;42800;53.928;27.662;2023-03-14T06:45:09;97458.09;;;5.27;100.00
56912;BME280;42800;53.928;27.662;2023-03-14T06:47:35;97469.94;;;5.49;100.00
56912;BME280;42800;53.928;27.662;2023-03-14T06:50:02;97441.16;;;5.40;100.00
56912;BME280;42800;53.928;27.662;2023-03-14T06:52:28;97434.22;;;5.13;100.00
56912;BME280;42800;53.928;27.662;2023-03-14T06:54:54;97457.41;;;5.37;100.00
56912;BME280;42800;53.928;27.662;2023-03-14T06:57:20;97432.56;;;5.38;100.00
56912;BME280;42800;53.928;27.662;2023-03-14T06:59:46;97417.94;;;5.13;100.00
56912;BME280;42800;53.928;27.662;2023-03-14T07:02:13;97444.91;;;5.29;100.00
56912;BME280;42800;53.928;27.662;2023-03-14T07:04:39;97394.44;;;5.28;100.00
56912;BME280;42800;53.928;27.662;2023-03-14T07:07:05;97381.16;;;5.60;100.00
56912;BME280;42800;53.928;27.662;2023-03-14T07:09:31;97330.47;;;5.37;100.00
56912;BME280;42800;53.928;27.662;2023-03-14T07:11:57;97347.03;;;5.25;100.00
56912;BME280;42800;53.928;27.662;2023-03-14T07:14:24;97333.94;;;5.34;100.00
56912;BME280;42800;53.928;27.662;2023-03-14T07:16:49;97326.72;;;5.53;100.00
56912;BME280;42800;53.928;27.662;2023-03-14T07:19:16;97318.28;;;5.69;100.00
56912;BME280;42800;53.928;27.662;2023-03-14T07:21:42;97247.53;;;5.54;100.00
56912;BME280;42800;53.928;27.662;2023-03-14T07:24:08;97197.44;;;5.59;100.00
56912;BME280;42800;53.928;27.662;2023-03-14T07:26:34;97208.00;;;5.71;100.00
56912;BME280;42800;53.928;27.662;2023-03-14T07:29:00;97156.81;;;5.84;100.00
56912;BME280;42800;53.928;27.662;2023-03-14T07:31:28;97137.50;;;6.07;100.00
56912;BME280;42800;53.928;27.662;2023-03-14T07:33:54;97094.38;;;6.20;100.00
56912;BME280;42800;53.928;27.662;2023-03-14T07:36:21;97066.41;;;6.51;100.00
56912;BME280;42800;53.928;27.662;2023-03-14T07:38:47;96942.75;;;6.63;100.00
56912;BME280;42800;53.928;27.662;2023-03-14T07:41:13;96906.03;;;6.96;100.00
56912;BME280;42800;53.928;27.662;2023-03-14T07:43:39;96819.59;;;7.60;100.00
56912;BME280;42800;53.928;27.662;2023-03-14T07:46:06;96757.47;;;7.40;100.00
56912;BME280;42800;53.928;27.662;2023-03-14T07:48:33;96729.56;;;7.67;100.00
56912;BME280;42800;53.928;27.662;2023-03-14T07:50:58;96695.59;;;8.09;100.00
56912;BME280;42800;53.928;27.662;2023-03-14T07:53:25;96686.22;;;8.44;100.00
56912;BME280;42800;53.928;27.662;2023-03-14T07:55:52;96697.06;;;8.48;100.00
56912;BME280;42800;53.928;27.662;2023-03-14T07:58:18;96700.22;;;8.46;100.00
56912;BME280;42800;53.928;27.662;2023-03-14T08:00:44;96701.13;;;8.02;100.00
56912;BME280;42800;53.928;27.662;2023-03-14T08:03:10;96701.41;;;8.11;100.00
56912;BME280;42800;53.928;27.662;2023-03-14T08:05:37;96705.81;;;8.66;100.00
56912;BME280;42800;53.928;27.662;2023-03-14T08:08:04;96727.72;;;8.90;100.00
56912;BME280;42800;53.928;27.662;2023-03-14T08:10:31;96750.56;;;9.03;100.00
56912;BME280;42800;53.928;27.662;2023-03-14T08:12:58;96773.03;;;9.14;100.00
56912;BME280;42800;53.928;27.662;2023-03-14T08:15:25;96800.41;;;9.85;100.00
56912;BME280;42800;53.928;27.662;2023-03-14T08:17:52;96839.69;;;9.98;100.00
56912;BME280;42800;53.928;27.662;2023-03-14T08:20:20;96887.75;;;9.49;100.00
56912;BME280;42800;53.928;27.662;2023-03-14T08:22:46;96897.31;;;9.64;100.00
56912;BME280;42800;53.928;27.662;2023-03-14T08:25:13;96919.63;;;10.13;100.00
56912;BME280;42800;53.928;27.662;2023-03-14T08:27:40;96953.16;;;9.94;100.00
56912;BME280;42800;53.928;27.662;2023-03-14T08:30:10;96964.81;;;10.92;100.00
56912;BME280;42800;53.928;27.662;2023-03-14T08:33:03;96973.81;;;9.71;100.00
56912;BME280;42800;53.928;27.662;2023-03-14T08:35:29;96906.69;;;9.90;100.00
56912;BME280;42800;53.928;27.662;2023-03-14T08:40:59;96910.72;;;9.55;100.00
56912;BME280;42800;53.928;27.662;2023-03-14T08:43:27;96900.16;;;9.57;100.00
56912;BME280;42800;53.928;27.662;2023-03-14T08:45:53;96892.19;;;10.40;100.00
56912;BME280;42800;53.928;27.662;2023-03-14T08:48:19;96983.75;;;10.39;100.00
56912;BME280;42800;53.928;27.662;2023-03-14T08:50:45;97005.69;;;10.82;100.00
56912;BME280;42800;53.928;27.662;2023-03-14T08:53:11;97006.03;;;11.28;100.00
56912;BME280;42800;53.928;27.662;2023-03-14T08:55:37;97078.50;;;12.10;100.00
56912;BME280;42800;53.928;27.662;2023-03-14T08:58:02;97131.84;;;12.09;100.00
56912;BME280;42800;53.928;27.662;2023-03-14T09:00:29;97150.41;;;12.41;100.00
56912;BME280;42800;53.928;27.662;2023-03-14T09:02:55;97131.78;;;11.53;100.00
56912;BME280;42800;53.928;27.662;2023-03-14T09:05:21;97105.88;;;12.66;100.00
56912;BME280;42800;53.928;27.662;2023-03-14T09:07:47;97171.31;;;13.24;100.00
56912;BME280;42800;53.928;27.662;2023-03-14T09:10:13;97174.47;;;12.37;100.00
56912;BME280;42800;53.928;27.662;2023-03-14T09:12:39;97204.00;;;12.69;100.00
56912;BME280;42800;53.928;27.662;2023-03-14T09:15:06;97224.44;;;14.28;100.00
56912;BME280;42800;53.928;27.662;2023-03-14T09:17:33;97272.88;;;13.84;100.00
56912;BME280;42800;53.928;27.662;2023-03-14T09:20:00;97260.50;;;13.27;100.00
56912;BME280;42800;53.928;27.662;2023-03-14T09:22:26;97246.56;;;12.61;100.00
56912;BME280;42800;53.928;27.662;2023-03-14T09:24:52;97206.31;;;11.71;100.00
56912;BME280;42800;53.928;27.662;2023-03-14T09:27:18;97202.97;;;11.84;100.00
56912;BME280;42800;53.928;27.662;2023-03-14T09:29:44;97200.25;;;12.23;100.00
56912;BME280;42800;53.928;27.662;2023-03-14T09:32:10;97220.59;;;12.26;100.00
56912;BME280;42800;53.928;27.662;2023-03-14T09:34:36;97221.00;;;11.85;100.00
56912;BME280;42800;53.928;27.662;2023-03-14T09:37:02;97172.94;;;11.29;100.00
56912;BME280;42800;53.928;27.662;2023-03-14T09:39:28;97146.44;;;10.45;100.00
56912;BME280;42800;53.928;27.662;2023-03-14T09:41:56;97096.66;;;9.93;100.00
56912;BME280;42800;53.928;27.662;2023-03-14T09:44:28;97062.75;;;9.83;100.00
56912;BME280;42800;53.928;27.662;2023-03-14T09:46:57;97023.59;;;9.59;100.00
56912;BME280;42800;53.928;27.662;2023-03-14T09:49:28;96996.47;;;9.41;100.00
56912;BME280;42800;53.928;27.662;2023-03-14T09:51:56;96925.94;;;9.56;100.00
56912;BME280;42800;53.928;27.662;2023-03-14T09:54:31;96846.94;;;9.34;100.00
56912;BME280;42800;53.928;27.662;2023-03-14T09:57:00;96812.53;;;9.10;100.00
56912;BME280;42800;53.928;27.662;2023-03-14T09:59:28;96779.22;;;9.42;100.00
56912;BME280;42800;53.928;27.662;2023-03-14T10:01:56;96742.53;;;9.86;100.00
56912;BME280;42800;53.928;27.662;2023-03-14T10:04:23;96788.63;;;9.88;100.00
56912;BME280;42800;53.928;27.662;2023-03-14T10:06:50;96821.88;;;10.10;100.00
56912;BME280;42800;53.928;27.662;2023-03-14T10:09:20;96907.41;;;9.94;100.00
56912;BME280;42800;53.928;27.662;2023-03-14T10:11:54;96900.03;;;10.14;100.00
56912;BME280;42800;53.928;27.662;2023-03-14T10:14:31;96916.00;;;9.93;100.00
56912;BME280;42800;53.928;27.662;2023-03-14T10:17:05;96921.97;;;9.60;100.00
56912;BME280;42800;53.928;27.662;2023-03-14T10:19:32;96906.53;;;9.47;100.00
56912;BME280;42800;53.928;27.662;2023-03-14T10:22:02;96902.72;;;9.40;100.00
56912;BME280;42800;53.928;27.662;2023-03-14T10:24:30;96910.59;;;9.89;100.00
56912;BME280;42800;53.928;27.662;2023-03-14T10:26:59;97001.25;;;10.69;100.00
56912;BME280;42800;53.928;27.662;2023-03-14T10:29:28;97062.97;;;10.77;100.00
56912;BME280;42800;53.928;27.662;2023-03-14T10:31:57;97073.53;;;11.22;100.00
56912;BME280;42800;53.928;27.662;2023-03-14T10:34:27;97074.22;;;11.06;100.00
56912;BME280;42800;53.928;27.662;2023-03-14T10:36:55;97061.47;;;10.72;100.00
56912;BME280;42800;53.928;27.662;2023-03-14T10:39:26;97038.97;;;10.61;100.00
56912;BME280;42800;53.928;27.662;2023-03-14T10:41:55;97003.34;;;10.10;100.00
56912;BME280;42800;53.928;27.662;2023-03-14T10:44:28;96993.53;;;10.40;100.00
56912;BME280;42800;53.928;27.662;2023-03-14T10:46:59;97001.19;;;10.49;100.00
56912;BME280;42800;53.928;27.662;2023-03-14T10:49:28;96997.00;;;10.88;100.00
56912;BME280;42800;53.928;27.662;2023-03-14T10:51:55;97016.16;;;10.44;100.00
56912;BME280;42800;53.928;27.662;2023-03-14T10:54:29;97001.63;;;10.47;100.00
56912;BME280;42800;53.928;27.662;2023-03-14T10:56:57;96994.47;;;10.77;100.00
56912;BME280;42800;53.928;27.662;2023-03-14T10:59:23;96995.06;;;10.41;100.00
56912;BME280;42800;53.928;27.662;2023-03-14T11:01:54;97000.19;;;10.63;100.00
56912;BME280;42800;53.928;27.662;2023-03-14T11:04:36;97014.59;;;10.43;100.00
56912;BME280;42800;53.928;27.662;2023-03-14T11:07:13;97015.44;;;10.40;100.00
56912;BME280;42800;53.928;27.662;2023-03-14T11:09:45;97012.97;;;10.69;100.00
56912;BME280;42800;53.928;27.662;2023-03-14T11:12:29;97030.38;;;10.82;100.00
56912;BME280;42800;53.928;27.662;2023-03-14T11:15:01;97033.09;;;11.26;100.00
56912;BME280;42800;53.928;27.662;2023-03-14T11:17:30;97064.91;;;11.83;100.00
56912;BME280;42800;53.928;27.662;2023-03-14T11:23:12;97090.69;;;12.25;100.00
56912;BME280;42800;53.928;27.662;2023-03-14T11:25:44;97087.75;;;12.00;100.00
56912;BME280;42800;53.928;27.662;2023-03-14T11:28:18;97101.94;;;11.55;100.00
56912;BME280;42800;53.928;27.662;2023-03-14T11:30:51;97085.91;;;11.53;100.00
56912;BME280;42800;53.928;27.662;2023-03-14T11:33:19;97079.41;;;11.84;100.00
56912;BME280;42800;53.928;27.662;2023-03-14T11:35:50;97090.19;;;11.54;100.00
56912;BME280;42800;53.928;27.662;2023-03-14T11:38:29;97068.53;;;11.60;100.00
56912;BME280;42800;53.928;27.662;2023-03-14T11:40:57;97058.09;;;11.91;100.00
56912;BME280;42800;53.928;27.662;2023-03-14T11:43:28;97061.59;;;12.28;100.00
56912;BME280;42800;53.928;27.662;2023-03-14T11:46:01;97062.88;;;11.67;100.00
56912;BME280;42800;53.928;27.662;2023-03-14T11:48:38;97033.84;;;12.06;100.00
56912;BME280;42800;53.928;27.662;2023-03-14T11:51:11;97058.88;;;11.52;100.00
56912;BME280;42800;53.928;27.662;2023-03-14T11:53:48;97050.56;;;11.75;100.00
56912;BME280;42800;53.928;27.662;2023-03-14T11:56:19;97042.31;;;11.95;100.00
56912;BME280;42800;53.928;27.662;2023-03-14T11:58:55;97044.72;;;11.93;100.00
56912;BME280;42800;53.928;27.662;2023-03-14T12:01:29;97042.47;;;11.88;100.00
56912;BME280;42800;53.928;27.662;2023-03-14T12:04:06;97030.00;;;11.84;100.00
56912;BME280;42800;53.928;27.662;2023-03-14T12:06:39;97012.88;;;11.96;100.00
56912;BME280;42800;53.928;27.662;2023-03-14T12:09:10;97031.63;;;11.81;100.00
56912;BME280;42800;53.928;27.662;2023-03-14T12:11:40;97010.81;;;11.64;100.00
56912;BME280;42800;53.928;27.662;2023-03-14T12:14:19;97006.88;;;11.65;100.00
56912;BME280;42800;53.928;27.662;2023-03-14T12:16:46;97020.78;;;11.74;100.00
56912;BME280;42800;53.928;27.662;2023-03-14T12:22:24;97020.03;;;11.73;100.00
56912;BME280;42800;53.928;27.662;2023-03-14T12:24:55;97021.19;;;11.72;100.00
56912;BME280;42800;53.928;27.662;2023-03-14T12:27:47;97022.75;;;11.93;100.00
56912;BME280;42800;53.928;27.662;2023-03-14T12:30:22;97024.91;;;12.02;100.00
56912;BME280;42800;53.928;27.662;2023-03-14T12:36:04;97013.84;;;12.06;100.00
56912;BME280;42800;53.928;27.662;2023-03-14T12:38:52;97018.28;;;11.99;100.00
56912;BME280;42800;53.928;27.662;2023-03-14T12:41:27;97024.91;;;12.02;100.00
56912;BME280;42800;53.928;27.662;2023-03-14T12:43:54;97004.50;;;12.19;100.00
56912;BME280;42800;53.928;27.662;2023-03-14T12:46:24;97011.88;;;12.06;100.00
56912;BME280;42800;53.928;27.662;2023-03-14T12:48:54;97002.72;;;12.29;100.00
56912;BME280;42800;53.928;27.662;2023-03-14T12:51:29;97010.63;;;12.43;100.00
56912;BME280;42800;53.928;27.662;2023-03-14T12:57:12;97023.44;;;12.50;100.00
56912;BME280;42800;53.928;27.662;2023-03-14T12:59:50;97028.75;;;12.74;100.00
56912;BME280;42800;53.928;27.662;2023-03-14T13:02:23;97022.38;;;12.60;100.00
56912;BME280;42800;53.928;27.662;2023-03-14T13:04:52;97016.63;;;12.38;100.00
56912;BME280;42800;53.928;27.662;2023-03-14T13:07:34;97000.91;;;12.39;100.00
56912;BME280;42800;53.928;27.662;2023-03-14T13:10:04;96996.34;;;12.48;100.00